createdAt,value
2022-12-20T00:00:02.521Z,100801.97
2022-12-20T00:02:34.843Z,100799.47
2022-12-20T00:05:05.874Z,100801.94
2022-12-20T00:07:36.454Z,100802.75
2022-12-20T00:10:07.760Z,100807.09
2022-12-20T00:12:38.175Z,100810.72
2022-12-20T00:15:09.171Z,100810.91
2022-12-20T00:17:40.746Z,100816.44
2022-12-20T00:20:12.763Z,100816.75
2022-12-20T00:22:46.837Z,100828.56
2022-12-20T00:25:17.886Z,100822.47
2022-12-20T00:27:51.101Z,100823.97
2022-12-20T00:30:22.154Z,100827.97
2022-12-20T00:32:53.595Z,100823.72
2022-12-20T00:35:24.099Z,100827.75
2022-12-20T00:37:55.024Z,100839.22
2022-12-20T00:40:26.437Z,100832.47
2022-12-20T00:42:56.966Z,100838.81
2022-12-20T00:45:28.154Z,100844.53
2022-12-20T00:48:00.116Z,100845.84
2022-12-20T00:50:31.610Z,100849.03
2022-12-20T00:53:02.540Z,100840.09
2022-12-20T00:55:33.135Z,100843.59
2022-12-20T00:58:03.614Z,100844.78
2022-12-20T01:00:35.068Z,100841.06
2022-12-20T01:03:07.786Z,100845.44
2022-12-20T01:05:39.018Z,100851.13
2022-12-20T01:08:10.606Z,100849.75
2022-12-20T01:10:41.322Z,100839.63
2022-12-20T01:13:12.535Z,100840.75
2022-12-20T01:15:43.356Z,100829.09
2022-12-20T01:18:13.934Z,100830.78
2022-12-20T01:20:44.679Z,100837.84
2022-12-20T01:23:15.404Z,100837.13
2022-12-20T01:25:46.698Z,100836.25
2022-12-20T01:28:17.121Z,100828.84
2022-12-20T01:30:47.683Z,100840.47
2022-12-20T01:33:18.386Z,100838.78
2022-12-20T01:36:02.667Z,100838.06
2022-12-20T01:38:33.404Z,100835.38
2022-12-20T01:41:05.016Z,100835.91
2022-12-20T01:43:48.864Z,100831.31
2022-12-20T01:46:21.042Z,100840.78
2022-12-20T01:49:04.902Z,100837.72
2022-12-20T01:51:38.840Z,100839.38
2022-12-20T01:54:14.113Z,100833.31
2022-12-20T01:56:51.063Z,100842.03
2022-12-20T01:59:22.220Z,100839.31
2022-12-20T02:01:52.880Z,100834.59
2022-12-20T02:04:23.562Z,100825.69
2022-12-20T02:06:53.818Z,100826.69
2022-12-20T02:09:24.838Z,100835.25
2022-12-20T02:12:19.524Z,100827.81
2022-12-20T02:15:25.515Z,100834.72
2022-12-20T02:18:14.332Z,100836.91
2022-12-20T02:20:58.376Z,100839.25
2022-12-20T02:24:26.184Z,100836.63
2022-12-20T02:27:15.391Z,100834.00
2022-12-20T02:30:02.162Z,100834.94
2022-12-20T02:32:44.437Z,100834.84
2022-12-20T02:35:17.288Z,100831.00
2022-12-20T02:37:53.493Z,100832.22
2022-12-20T02:40:30.070Z,100820.94
2022-12-20T02:43:03.599Z,100828.41
2022-12-20T02:45:36.230Z,100821.50
2022-12-20T02:48:12.844Z,100810.41
2022-12-20T02:50:48.697Z,100805.03
2022-12-20T02:53:20.281Z,100806.72
2022-12-20T02:56:08.156Z,100800.47
2022-12-20T02:58:48.402Z,100797.63
2022-12-20T03:01:44.285Z,100788.69
2022-12-20T03:04:15.340Z,100785.16
2022-12-20T03:07:11.024Z,100777.59
2022-12-20T03:09:45.030Z,100781.03
2022-12-20T03:12:18.873Z,100770.91
2022-12-20T03:14:49.991Z,100757.31
2022-12-20T03:17:20.556Z,100750.53
2022-12-20T03:19:51.055Z,100757.22
2022-12-20T03:22:22.880Z,100750.53
2022-12-20T03:24:53.905Z,100743.63
2022-12-20T03:27:25.536Z,100740.78
2022-12-20T03:29:56.629Z,100740.78
2022-12-20T03:32:27.759Z,100736.03
2022-12-20T03:34:59.377Z,100738.53
2022-12-20T03:37:36.707Z,100732.78
2022-12-20T03:40:09.857Z,100725.72
2022-12-20T03:42:40.653Z,100707.00
2022-12-20T03:45:11.933Z,100700.59
2022-12-20T03:47:42.595Z,100685.44
2022-12-20T03:50:13.509Z,100682.75
2022-12-20T03:52:47.622Z,100669.91
2022-12-20T03:55:19.327Z,100662.06
2022-12-20T03:57:50.659Z,100661.31
2022-12-20T04:00:30.295Z,100664.69
2022-12-20T04:03:17.905Z,100641.34
2022-12-20T04:05:48.906Z,100636.59
2022-12-20T04:08:19.179Z,100641.91
2022-12-20T04:11:09.784Z,100627.84
2022-12-20T04:13:41.672Z,100618.75
2022-12-20T04:16:14.704Z,100613.44
2022-12-20T04:18:45.989Z,100621.34
2022-12-20T04:21:17.456Z,100610.38
2022-12-20T04:23:54.060Z,100612.97
2022-12-20T04:26:26.408Z,100601.91
2022-12-20T04:28:57.977Z,100588.22
2022-12-20T04:31:28.569Z,100581.81
2022-12-20T04:33:59.899Z,100577.31
2022-12-20T04:36:36.439Z,100565.50
2022-12-20T04:39:11.731Z,100552.94
2022-12-20T04:41:54.221Z,100550.78
2022-12-20T04:44:24.815Z,100541.66
2022-12-20T04:47:00.031Z,100532.84
2022-12-20T04:49:32.000Z,100523.19
2022-12-20T04:52:22.950Z,100521.13
2022-12-20T04:54:53.624Z,100520.47
2022-12-20T04:57:29.557Z,100524.53
2022-12-20T05:00:02.210Z,100506.66
2022-12-20T05:02:33.558Z,100512.75
2022-12-20T05:05:10.457Z,100516.94
2022-12-20T05:07:48.854Z,100519.06
2022-12-20T05:10:23.007Z,100526.13
2022-12-20T05:12:54.902Z,100523.38
2022-12-20T05:15:36.293Z,100530.59
2022-12-20T05:18:08.332Z,100520.97
2022-12-20T05:21:20.566Z,100529.06
2022-12-20T05:24:12.594Z,100504.66
2022-12-20T05:27:00.207Z,100502.22
2022-12-20T05:29:32.047Z,100494.38
2022-12-20T05:32:03.045Z,100484.09
2022-12-20T05:34:37.199Z,100485.75
2022-12-20T05:37:08.060Z,100487.03
2022-12-20T05:39:40.704Z,100477.41
2022-12-20T05:42:17.931Z,100477.41
2022-12-20T05:44:48.448Z,100476.13
2022-12-20T05:47:19.396Z,100468.22
2022-12-20T05:49:50.592Z,100467.66
2022-12-20T05:52:23.311Z,100467.00
2022-12-20T05:54:54.219Z,100476.13
2022-12-20T05:57:29.563Z,100467.00
2022-12-20T06:00:00.412Z,100472.41
2022-12-20T06:02:34.367Z,100472.78
2022-12-20T06:05:07.018Z,100475.63
2022-12-20T06:07:37.895Z,100481.66
2022-12-20T06:10:08.865Z,100477.69
2022-12-20T06:12:59.613Z,100466.91
2022-12-20T06:15:31.368Z,100467.50
2022-12-20T06:18:04.667Z,100469.34
2022-12-20T06:20:36.640Z,100465.16
2022-12-20T06:23:08.563Z,100459.28
2022-12-20T06:25:48.068Z,100463.28
2022-12-20T06:28:22.862Z,100454.53
2022-12-20T06:30:59.113Z,100457.84
2022-12-20T06:33:40.440Z,100459.28
2022-12-20T06:36:14.586Z,100460.53
2022-12-20T06:38:46.161Z,100453.06
2022-12-20T06:41:17.951Z,100456.34
2022-12-20T06:43:49.324Z,100453.84
2022-12-20T06:46:20.167Z,100457.13
2022-12-20T06:48:51.417Z,100457.13
2022-12-20T06:51:22.341Z,100462.88
2022-12-20T06:53:53.352Z,100454.16
2022-12-20T06:56:24.829Z,100453.72
2022-12-20T06:58:55.941Z,100453.91
2022-12-20T07:01:26.907Z,100448.50
2022-12-20T07:03:57.581Z,100447.34
2022-12-20T07:06:30.081Z,100446.53
2022-12-20T07:09:01.068Z,100445.25
2022-12-20T07:11:32.286Z,100457.31
2022-12-20T07:14:03.986Z,100458.13
2022-12-20T07:16:35.453Z,100452.25
2022-12-20T07:19:06.572Z,100455.19
2022-12-20T07:21:38.452Z,100456.59
2022-12-20T07:24:09.816Z,100450.16
2022-12-20T07:26:40.432Z,100439.81
2022-12-20T07:29:15.437Z,100434.25
2022-12-20T07:31:47.413Z,100431.94
2022-12-20T07:34:18.565Z,100428.22
2022-12-20T07:36:49.370Z,100443.19
2022-12-20T07:39:20.392Z,100443.19
2022-12-20T07:41:51.439Z,100443.25
2022-12-20T07:44:25.712Z,100447.88
2022-12-20T07:46:56.669Z,100444.16
2022-12-20T07:49:26.937Z,100442.94
2022-12-20T07:52:02.278Z,100436.69
2022-12-20T07:54:44.781Z,100432.53
2022-12-20T07:57:20.475Z,100437.09
2022-12-20T07:59:55.113Z,100440.81
2022-12-20T08:02:38.162Z,100448.72
2022-12-20T08:05:10.138Z,100449.66
2022-12-20T08:07:43.805Z,100449.88
2022-12-20T08:10:16.957Z,100456.97
2022-12-20T08:12:49.085Z,100451.97
2022-12-20T08:15:22.517Z,100458.59
2022-12-20T08:17:53.133Z,100465.66
2022-12-20T08:20:23.953Z,100466.88
2022-12-20T08:22:54.875Z,100468.53
2022-12-20T08:25:27.315Z,100486.13
2022-12-20T08:27:57.985Z,100470.59
2022-12-20T08:30:28.259Z,100485.84
2022-12-20T08:32:59.131Z,100484.59
2022-12-20T08:35:29.517Z,100489.97
2022-12-20T08:37:59.997Z,100488.47
2022-12-20T08:40:33.813Z,100488.69
2022-12-20T08:43:10.021Z,100489.03
2022-12-20T08:45:43.708Z,100494.81
2022-12-20T08:48:14.379Z,100489.41
2022-12-20T08:50:45.424Z,100497.66
2022-12-20T08:53:15.963Z,100510.06
2022-12-20T08:55:46.750Z,100512.75
2022-12-20T08:58:24.541Z,100521.66
2022-12-20T09:00:56.228Z,100515.81
2022-12-20T09:03:26.984Z,100514.16
2022-12-20T09:05:57.990Z,100515.34
2022-12-20T09:08:29.021Z,100524.94
2022-12-20T09:11:07.075Z,100522.59
2022-12-20T09:13:43.323Z,100527.16
2022-12-20T09:16:17.828Z,100531.72
2022-12-20T09:18:52.600Z,100529.03
2022-12-20T09:21:24.279Z,100528.09
2022-12-20T09:23:56.603Z,100535.59
2022-12-20T09:26:27.606Z,100549.00
2022-12-20T09:28:58.541Z,100552.88
2022-12-20T09:31:29.818Z,100559.66
2022-12-20T09:34:02.983Z,100565.41
2022-12-20T09:36:33.793Z,100555.50
2022-12-20T09:39:07.261Z,100555.22
2022-12-20T09:41:44.180Z,100547.88
2022-12-20T09:44:25.986Z,100553.25
2022-12-20T09:47:10.599Z,100568.78
2022-12-20T09:49:47.528Z,100559.19
2022-12-20T09:52:24.182Z,100559.56
2022-12-20T09:55:09.103Z,100580.25
2022-12-20T09:58:25.526Z,100575.34
2022-12-20T10:00:55.861Z,100582.66
2022-12-20T10:03:34.620Z,100591.75
2022-12-20T10:06:25.717Z,100593.41
2022-12-20T10:09:00.657Z,100603.72
2022-12-20T10:12:26.513Z,100598.81
2022-12-20T10:15:12.349Z,100610.28
2022-12-20T10:17:54.964Z,100612.81
2022-12-20T10:20:31.139Z,100616.34
2022-12-20T10:23:33.039Z,100620.34
2022-12-20T10:26:07.202Z,100630.81
2022-12-20T10:28:37.784Z,100624.78
2022-12-20T10:31:19.568Z,100627.75
2022-12-20T10:33:50.483Z,100634.38
2022-12-20T10:36:29.123Z,100639.75
2022-12-20T10:39:07.807Z,100643.81
2022-12-20T10:41:43.968Z,100645.94
2022-12-20T10:44:30.899Z,100660.06
2022-12-20T10:47:02.435Z,100656.72
2022-12-20T10:49:33.978Z,100656.72
2022-12-20T10:52:10.790Z,100662.47
2022-12-20T10:54:49.434Z,100664.13
2022-12-20T10:57:35.119Z,100667.84
2022-12-20T11:00:09.924Z,100673.59
2022-12-20T11:06:50.655Z,100690.47
2022-12-20T11:09:38.412Z,100691.78
2022-12-20T11:12:15.568Z,100695.75
2022-12-20T11:14:47.806Z,100699.91
2022-12-20T11:17:23.974Z,100712.00
2022-12-20T11:20:12.723Z,100710.31
2022-12-20T11:23:11.325Z,100719.34
2022-12-20T11:25:55.348Z,100721.75
2022-12-20T11:29:01.215Z,100727.06
2022-12-20T11:31:43.755Z,100731.09
2022-12-20T11:34:39.296Z,100725.00
2022-12-20T11:37:28.612Z,100722.66
2022-12-20T11:40:12.959Z,100729.78
2022-12-20T11:42:55.647Z,100728.28
2022-12-20T11:45:29.963Z,100731.81
2022-12-20T11:48:04.106Z,100726.31
2022-12-20T11:51:15.600Z,100729.81
2022-12-20T11:54:03.195Z,100724.78
2022-12-20T11:57:05.493Z,100722.84
2022-12-20T11:59:49.441Z,100719.41
2022-12-20T12:02:37.072Z,100723.28
2022-12-20T12:05:25.500Z,100729.63
2022-12-20T12:08:01.053Z,100725.31
2022-12-20T12:10:41.214Z,100723.97
2022-12-20T12:13:18.200Z,100726.13
2022-12-20T12:16:03.656Z,100727.44
2022-12-20T12:18:38.639Z,100725.97
2022-12-20T12:21:24.101Z,100734.06
2022-12-20T12:24:08.929Z,100736.09
2022-12-20T12:26:41.917Z,100734.41
2022-12-20T12:29:18.003Z,100734.41
2022-12-20T12:32:04.571Z,100735.22
2022-12-20T12:34:53.780Z,100740.47
2022-12-20T12:37:57.900Z,100743.50
2022-12-20T12:40:52.303Z,100739.97
2022-12-20T12:43:34.977Z,100735.94
2022-12-20T12:46:15.346Z,100735.09
2022-12-20T12:49:01.469Z,100739.81
2022-12-20T12:51:38.104Z,100747.91
2022-12-20T12:54:12.031Z,100751.63
2022-12-20T12:56:52.550Z,100757.00
2022-12-20T12:59:35.043Z,100756.63
2022-12-20T13:02:06.207Z,100746.22
2022-12-20T13:05:00.200Z,100746.53
2022-12-20T13:07:46.964Z,100755.97
2022-12-20T13:10:25.908Z,100751.97
2022-12-20T13:13:01.164Z,100754.50
2022-12-20T13:15:33.653Z,100748.75
2022-12-20T13:18:11.852Z,100748.25
2022-12-20T13:20:42.814Z,100757.00
2022-12-20T13:23:13.597Z,100762.38
2022-12-20T13:25:47.510Z,100755.31
2022-12-20T13:28:19.008Z,100760.69
2022-12-20T13:30:54.826Z,100754.31
2022-12-20T13:33:42.703Z,100752.09
2022-12-20T13:36:35.874Z,100752.47
2022-12-20T13:39:27.275Z,100751.63
2022-12-20T13:42:18.129Z,100753.66
2022-12-20T13:44:49.699Z,100742.88
2022-12-20T13:48:00.050Z,100736.13
2022-12-20T13:50:39.663Z,100733.13
2022-12-20T13:53:19.805Z,100742.06
2022-12-20T13:55:51.167Z,100740.03
2022-12-20T13:58:34.462Z,100725.72
2022-12-20T14:01:17.332Z,100724.38
2022-12-20T14:03:51.767Z,100733.47
2022-12-20T14:06:27.170Z,100733.19
2022-12-20T14:08:57.748Z,100734.13
2022-12-20T14:11:28.922Z,100733.31
2022-12-20T14:14:01.907Z,100736.84
2022-12-20T14:16:34.037Z,100744.91
2022-12-20T14:19:09.039Z,100743.88
2022-12-20T14:21:43.795Z,100745.75
2022-12-20T14:24:19.987Z,100732.09
2022-12-20T14:26:52.897Z,100739.16
2022-12-20T14:29:31.104Z,100733.97
2022-12-20T14:32:01.958Z,100731.44
2022-12-20T14:34:39.646Z,100737.03
2022-12-20T14:37:35.015Z,100727.06
2022-12-20T14:40:12.251Z,100724.09
2022-12-20T14:42:43.011Z,100723.25
2022-12-20T14:45:17.617Z,100725.75
2022-12-20T14:48:12.476Z,100711.66
2022-12-20T14:50:56.522Z,100713.31
2022-12-20T14:53:30.813Z,100711.19
2022-12-20T14:56:01.360Z,100708.50
2022-12-20T14:58:36.895Z,100704.94
2022-12-20T15:01:22.040Z,100694.19
2022-12-20T15:03:56.505Z,100692.50
2022-12-20T15:06:43.218Z,100691.47
2022-12-20T15:09:13.981Z,100687.13
2022-12-20T15:11:46.357Z,100684.78
2022-12-20T15:14:37.576Z,100676.34
2022-12-20T15:17:13.010Z,100682.09
2022-12-20T15:19:45.339Z,100683.75
2022-12-20T15:22:20.072Z,100677.72
2022-12-20T15:24:50.691Z,100674.38
2022-12-20T15:27:21.291Z,100673.56
2022-12-20T15:29:51.800Z,100678.75
2022-12-20T15:32:30.479Z,100678.75
2022-12-20T15:35:01.677Z,100678.75
2022-12-20T15:37:33.557Z,100675.75
2022-12-20T15:40:04.862Z,100678.28
2022-12-20T15:42:36.307Z,100679.94
2022-12-20T15:45:08.140Z,100679.47
2022-12-20T15:47:38.846Z,100677.41
2022-12-20T15:50:09.808Z,100682.81
2022-12-20T15:52:40.314Z,100683.66
2022-12-20T15:55:12.903Z,100682.16
2022-12-20T15:57:44.523Z,100674.06
2022-12-20T16:00:15.514Z,100679.66
2022-12-20T16:02:46.892Z,100660.97
2022-12-20T16:05:18.033Z,100661.63
2022-12-20T16:07:48.685Z,100659.97
2022-12-20T16:10:19.300Z,100660.31
2022-12-20T16:12:50.688Z,100647.06
2022-12-20T16:15:23.710Z,100645.38
2022-12-20T16:17:54.047Z,100640.53
2022-12-20T16:20:24.999Z,100637.00
2022-12-20T16:22:55.749Z,100636.66
2022-12-20T16:25:35.174Z,100631.78
2022-12-20T16:28:13.430Z,100627.06
2022-12-20T16:30:47.882Z,100624.94
2022-12-20T16:33:24.057Z,100618.69
2022-12-20T16:35:54.382Z,100618.22
2022-12-20T16:38:26.424Z,100608.28
2022-12-20T16:40:57.329Z,100605.44
2022-12-20T16:43:27.947Z,100606.91
2022-12-20T16:45:58.564Z,100608.28
2022-12-20T16:48:29.407Z,100601.22
2022-12-20T16:50:59.812Z,100602.09
2022-12-20T16:53:48.225Z,100594.19
2022-12-20T16:56:21.618Z,100585.25
2022-12-20T16:59:18.500Z,100583.75
2022-12-20T17:01:47.497Z,100590.47
2022-12-20T17:04:20.369Z,100580.72
2022-12-20T17:06:51.233Z,100580.03
2022-12-20T17:09:22.085Z,100574.34
2022-12-20T17:11:55.869Z,100576.69
2022-12-20T17:14:26.763Z,100578.38
2022-12-20T17:17:03.304Z,100573.84
2022-12-20T17:19:33.805Z,100575.22
2022-12-20T17:24:52.365Z,100580.41
2022-12-20T17:27:23.020Z,100574.00
2022-12-20T17:29:53.779Z,100584.25
2022-12-20T17:32:26.363Z,100573.94
2022-12-20T17:35:00.014Z,100585.03
2022-12-20T17:37:30.751Z,100579.72
2022-12-20T17:40:01.404Z,100577.38
2022-12-20T17:42:31.991Z,100572.31
2022-12-20T17:45:02.860Z,100573.16
2022-12-20T17:47:33.959Z,100569.47
2022-12-20T17:50:04.841Z,100561.72
2022-12-20T17:52:38.086Z,100554.38
2022-12-20T17:55:09.229Z,100558.91
2022-12-20T17:57:40.244Z,100547.63
2022-12-20T18:00:31.981Z,100544.16
2022-12-20T18:03:30.278Z,100536.09
2022-12-20T18:06:08.409Z,100530.72
2022-12-20T18:08:39.155Z,100528.06
2022-12-20T18:11:13.714Z,100521.03
2022-12-20T18:13:45.959Z,100520.22
2022-12-20T18:16:20.430Z,100514.34
2022-12-20T18:18:51.960Z,100504.59
2022-12-20T18:21:24.331Z,100503.59
2022-12-20T18:23:55.817Z,100493.53
2022-12-20T18:26:27.641Z,100498.09
2022-12-20T18:29:01.335Z,100494.56
2022-12-20T18:31:34.818Z,100502.81
2022-12-20T18:34:08.929Z,100503.47
2022-12-20T18:36:39.815Z,100501.28
2022-12-20T18:39:14.782Z,100497.28
2022-12-20T18:41:45.787Z,100494.59
2022-12-20T18:44:17.019Z,100493.94
2022-12-20T18:46:47.864Z,100491.25
2022-12-20T18:49:21.480Z,100482.16
2022-12-20T18:51:51.798Z,100486.38
2022-12-20T18:54:25.490Z,100489.56
2022-12-20T18:56:55.902Z,100486.22
2022-12-20T18:59:26.496Z,100493.59
2022-12-20T19:01:57.553Z,100488.22
2022-12-20T19:04:29.010Z,100491.59
2022-12-20T19:06:59.566Z,100488.25
2022-12-20T19:09:30.320Z,100482.88
2022-12-20T19:12:01.373Z,100480.84
2022-12-20T19:14:32.136Z,100479.69
2022-12-20T19:17:02.949Z,100482.88
2022-12-20T19:19:33.568Z,100485.22
2022-12-20T19:22:06.593Z,100477.50
2022-12-20T19:24:36.913Z,100473.31
2022-12-20T19:27:10.245Z,100477.50
2022-12-20T19:29:44.374Z,100477.50
2022-12-20T19:32:15.248Z,100475.00
2022-12-20T19:34:46.011Z,100474.50
2022-12-20T19:37:16.486Z,100480.22
2022-12-20T19:39:47.399Z,100477.84
2022-12-20T19:42:24.243Z,100474.50
2022-12-20T19:44:55.464Z,100481.53
2022-12-20T19:47:27.397Z,100475.00
2022-12-20T19:49:58.103Z,100477.84
2022-12-20T19:52:31.230Z,100478.19
2022-12-20T19:55:02.020Z,100483.56
2022-12-20T19:57:32.379Z,100475.69
2022-12-20T20:00:02.851Z,100481.06
2022-12-20T20:02:42.277Z,100481.06
2022-12-20T20:05:16.733Z,100477.03
2022-12-20T20:07:47.513Z,100488.59
2022-12-20T20:10:18.928Z,100483.22
2022-12-20T20:12:51.812Z,100474.84
2022-12-20T20:15:23.173Z,100479.88
2022-12-20T20:17:53.984Z,100481.88
2022-12-20T20:20:24.739Z,100482.75
2022-12-20T20:22:55.192Z,100488.28
2022-12-20T20:25:26.183Z,100484.22
2022-12-20T20:27:56.557Z,100496.66
2022-12-20T20:30:27.510Z,100494.97
2022-12-20T20:32:57.895Z,100495.50
2022-12-20T20:35:28.538Z,100500.03
2022-12-20T20:37:59.312Z,100494.97
2022-12-20T20:40:30.767Z,100491.63
2022-12-20T20:43:03.032Z,100502.03
2022-12-20T20:45:34.064Z,100497.00
2022-12-20T20:48:06.198Z,100502.69
2022-12-20T20:50:40.464Z,100497.00
2022-12-20T20:53:11.062Z,100510.59
2022-12-20T20:55:44.415Z,100505.91
2022-12-20T20:58:15.360Z,100506.72
2022-12-20T21:00:48.113Z,100509.75
2022-12-20T21:03:20.326Z,100512.13
2022-12-20T21:06:33.079Z,100502.69
2022-12-20T21:08:44.342Z,100503.41
2022-12-20T21:11:15.394Z,100506.41
2022-12-20T21:13:45.899Z,100506.94
2022-12-20T21:16:21.467Z,100502.03
2022-12-20T21:18:56.522Z,100507.44
2022-12-20T21:21:31.207Z,100510.44
2022-12-20T21:24:01.858Z,100506.06
2022-12-20T21:26:33.111Z,100510.97
2022-12-20T21:29:03.788Z,100507.28
2022-12-20T21:31:35.026Z,100522.72
2022-12-20T21:34:05.697Z,100515.47
2022-12-20T21:36:36.865Z,100514.16
2022-12-20T21:39:07.787Z,100516.84
2022-12-20T21:41:38.442Z,100519.03
2022-12-20T21:44:08.899Z,100515.69
2022-12-20T21:46:39.803Z,100516.00
2022-12-20T21:49:10.641Z,100516.50
2022-12-20T21:54:12.530Z,100513.16
2022-12-20T21:56:43.406Z,100513.50
2022-12-20T21:59:13.921Z,100516.84
2022-12-20T22:01:46.743Z,100518.88
2022-12-20T22:04:17.270Z,100514.53
2022-12-20T22:06:47.900Z,100528.97
2022-12-20T22:09:19.148Z,100527.44
2022-12-20T22:11:50.374Z,100536.00
2022-12-20T22:14:20.841Z,100533.34
2022-12-20T22:16:52.524Z,100535.34
2022-12-20T22:19:23.293Z,100547.38
2022-12-20T22:21:58.305Z,100545.72
2022-12-20T22:24:29.352Z,100549.72
2022-12-20T22:26:59.937Z,100552.59
2022-12-20T22:29:30.747Z,100553.25
2022-12-20T22:32:01.946Z,100557.47
2022-12-20T22:34:32.568Z,100559.44
2022-12-20T22:37:03.661Z,100570.03
2022-12-20T22:39:34.325Z,100576.91
2022-12-20T22:42:05.507Z,100575.41
2022-12-20T22:44:35.729Z,100565.88
2022-12-20T22:47:06.909Z,100568.03
2022-12-20T22:49:37.475Z,100566.22
2022-12-20T22:52:09.857Z,100564.84
2022-12-20T22:54:43.699Z,100564.84
2022-12-20T22:57:15.816Z,100567.03
2022-12-20T22:59:46.542Z,100578.28
2022-12-20T23:02:16.984Z,100570.56
2022-12-20T23:04:47.666Z,100573.25
2022-12-20T23:07:18.964Z,100580.97
2022-12-20T23:09:49.849Z,100590.19
2022-12-20T23:12:38.343Z,100599.41
2022-12-20T23:15:32.466Z,100605.78
2022-12-20T23:18:02.976Z,100602.44
2022-12-20T23:20:54.325Z,100609.81
2022-12-20T23:23:25.134Z,100613.31
2022-12-20T23:25:56.238Z,100617.19
2022-12-20T23:28:26.818Z,100625.25
2022-12-20T23:30:58.399Z,100624.91
2022-12-20T23:33:29.823Z,100629.09
2022-12-20T23:36:03.045Z,100632.78
2022-12-20T23:38:38.771Z,100633.31
2022-12-20T23:41:10.994Z,100643.38
2022-12-20T23:43:43.204Z,100642.03
2022-12-20T23:46:17.118Z,100642.38
2022-12-20T23:48:48.069Z,100643.38
2022-12-20T23:51:19.045Z,100644.03
2022-12-20T23:53:50.108Z,100648.22
2022-12-20T23:56:22.964Z,100654.44
2022-12-20T23:58:56.046Z,100652.44
